Ida Theresa — V7RQ9 — position and weather

sailwx.info

Track history (hours):
 
Tides and Currents Weather Stations Pressure Air Temp Water Temp Dewpoint Dewpoint Depression Visibility Wind Speed Wind Dir Waves Ship Positions

Ida Theresa

Last reported at 2015-May-25 22:09 UTC. Time now 2015-May-27 21:57 UTC.
Position N 33°53' E 017°50'.

Length 121 m; draft 7.6 m.

Type: Ship. MMSI: 538090386.

Date/timePositionNaut miles runAvg speedWind from/ knotsBaromVisibWave heightAir tempDewpointWater temp
2015-May-25 22:09N 33°53' E 017°50'9512.0
2015-May-25 14:14N 34°10' E 015°57'912.7
2015-May-25 13:33N 34°12' E 015°47'7512.5
2015-May-25 07:33N 34°25' E 014°18'  
2015-May-20 01:13N 37°22' E 010°30'1012.0
2015-May-20 00:24N 37°32' E 010°30'4812.3
2015-May-19 20:33N 37°27' E 009°31'1313.4
2015-May-19 19:33N 37°23' E 009°14'1313.2
2015-May-19 18:33N 37°20' E 008°58'1312.7
2015-May-19 17:32N 37°20' E 008°42'13912.2
2015-May-19 06:07N 37°20' E 005°47'911.9
2015-May-19 05:24N 37°20' E 005°36'1011.6
2015-May-19 04:31N 37°20' E 005°23'1211.8
2015-May-19 03:29N 37°20' E 005°08'1311.7
2015-May-19 02:20N 37°20' E 004°51'1012.2
2015-May-19 01:33N 37°20' E 004°39'3812.2
2015-May-18 22:27N 37°19' E 003°51'3411.9
2015-May-18 19:33N 37°12' E 003°09'9611.7
2015-May-18 11:21N 36°53' E 001°11'1211.1
2015-May-18 10:15N 36°51' E 000°56'811.3
2015-May-18 09:33N 36°49' E 000°47'1211.2
2015-May-18 08:27N 36°47' E 000°31'5911.5
2015-May-18 03:19N 36°36' W 000°41'3010.2
2015-May-18 00:23N 36°30' W 001°17'12 9.9
2015-May-17 23:12N 36°28' W 001°32'610.1
2015-May-17 22:33N 36°26' W 001°40'1210.3
2015-May-17 21:26N 36°24' W 001°54'910.0
2015-May-17 20:33N 36°22' W 002°04'15611.2
2015-May-17 06:33N 36°00' W 005°16'1212.0
2015-May-17 05:33N 35°57' W 005°30'11410.1
2015-May-16 18:16N 36°15' W 007°49'7112.0
2015-May-16 12:21N 36°33' W 009°14'910.9
2015-May-16 11:31N 36°39' W 009°23'1111.2
2015-May-16 10:33N 36°47' W 009°32'1211.7
2015-May-16 09:33N 36°58' W 009°36'1111.6
2015-May-16 08:33N 37°09' W 009°39'1211.9
2015-May-16 07:34N 37°21' W 009°42'1211.8
2015-May-16 06:33N 37°32' W 009°46'1211.8
2015-May-16 05:33N 37°44' W 009°49'1111.4
2015-May-16 04:33N 37°55' W 009°51'1111.2
2015-May-16 03:33N 38°06' W 009°55'1311.2
2015-May-16 02:25N 38°18' W 009°60'1011.2
2015-May-16 01:33N 38°28' W 010°02'1311.6
2015-May-16 00:25N 38°40' W 010°06'  
Track history (hours):
 
Tides and Currents Weather Stations Pressure Air Temp Water Temp Dewpoint Dewpoint Depression Visibility Wind Speed Wind Dir Waves Ship Positions

Ida Theresa

Last reported at 2015-May-25 22:09 UTC. Time now 2015-May-27 21:57 UTC.
Position N 33°53' E 017°50'.

Length 121 m; draft 7.6 m.

Type: Ship. MMSI: 538090386.

Date/timePositionNaut miles runAvg speedWind from/ knotsBaromVisibWave heightAir tempDewpointWater temp
2015-May-25 22:09N 33°53' E 017°50'9512.0
2015-May-25 14:14N 34°10' E 015°57'912.7
2015-May-25 13:33N 34°12' E 015°47'7512.5
2015-May-25 07:33N 34°25' E 014°18'  
2015-May-20 01:13N 37°22' E 010°30'1012.0
2015-May-20 00:24N 37°32' E 010°30'4812.3
2015-May-19 20:33N 37°27' E 009°31'1313.4
2015-May-19 19:33N 37°23' E 009°14'1313.2
2015-May-19 18:33N 37°20' E 008°58'1312.7
2015-May-19 17:32N 37°20' E 008°42'13912.2
2015-May-19 06:07N 37°20' E 005°47'911.9
2015-May-19 05:24N 37°20' E 005°36'1011.6
2015-May-19 04:31N 37°20' E 005°23'1211.8
2015-May-19 03:29N 37°20' E 005°08'1311.7
2015-May-19 02:20N 37°20' E 004°51'1012.2
2015-May-19 01:33N 37°20' E 004°39'3812.2
2015-May-18 22:27N 37°19' E 003°51'3411.9
2015-May-18 19:33N 37°12' E 003°09'9611.7
2015-May-18 11:21N 36°53' E 001°11'1211.1
2015-May-18 10:15N 36°51' E 000°56'811.3
2015-May-18 09:33N 36°49' E 000°47'1211.2
2015-May-18 08:27N 36°47' E 000°31'5911.5
2015-May-18 03:19N 36°36' W 000°41'3010.2
2015-May-18 00:23N 36°30' W 001°17'12 9.9
2015-May-17 23:12N 36°28' W 001°32'610.1
2015-May-17 22:33N 36°26' W 001°40'1210.3
2015-May-17 21:26N 36°24' W 001°54'910.0
2015-May-17 20:33N 36°22' W 002°04'15611.2
2015-May-17 06:33N 36°00' W 005°16'1212.0
2015-May-17 05:33N 35°57' W 005°30'11410.1
2015-May-16 18:16N 36°15' W 007°49'7112.0
2015-May-16 12:21N 36°33' W 009°14'910.9
2015-May-16 11:31N 36°39' W 009°23'1111.2
2015-May-16 10:33N 36°47' W 009°32'1211.7
2015-May-16 09:33N 36°58' W 009°36'1111.6
2015-May-16 08:33N 37°09' W 009°39'1211.9
2015-May-16 07:34N 37°21' W 009°42'1211.8
2015-May-16 06:33N 37°32' W 009°46'1211.8
2015-May-16 05:33N 37°44' W 009°49'1111.4
2015-May-16 04:33N 37°55' W 009°51'1111.2
2015-May-16 03:33N 38°06' W 009°55'1311.2
2015-May-16 02:25N 38°18' W 009°60'1011.2
2015-May-16 01:33N 38°28' W 010°02'1311.6
2015-May-16 00:25N 38°40' W 010°06'  

Dump ship's entire track history